createdAt,value
2023-07-19T00:03:13.218Z,78.39
2023-07-19T00:08:16.240Z,77.71
2023-07-19T00:13:19.172Z,77.88
2023-07-19T00:18:22.223Z,78.03
2023-07-19T00:23:25.251Z,78.50
2023-07-19T00:28:28.322Z,79.05
2023-07-19T00:33:32.214Z,78.65
2023-07-19T00:38:35.181Z,79.98
2023-07-19T00:43:38.135Z,80.96
2023-07-19T00:48:43.066Z,80.58
2023-07-19T00:53:50.161Z,79.42
2023-07-19T00:58:54.786Z,79.38
2023-07-19T01:03:57.820Z,79.48
2023-07-19T01:09:01.377Z,79.46
2023-07-19T01:14:04.572Z,79.65
2023-07-19T01:19:10.912Z,79.76
2023-07-19T01:24:13.848Z,80.00
2023-07-19T01:29:16.745Z,79.97
2023-07-19T01:34:19.655Z,79.81
2023-07-19T01:39:22.710Z,79.74
2023-07-19T01:44:25.619Z,79.64
2023-07-19T01:49:28.534Z,80.07
2023-07-19T01:54:32.071Z,79.69
2023-07-19T01:59:35.269Z,79.63
2023-07-19T02:04:38.299Z,79.81
2023-07-19T02:09:41.796Z,79.46
2023-07-19T02:14:44.741Z,79.91
2023-07-19T02:19:47.827Z,80.18
2023-07-19T02:24:50.780Z,79.97
2023-07-19T02:29:53.933Z,80.26
2023-07-19T02:34:56.914Z,80.16
2023-07-19T02:39:59.869Z,80.26
2023-07-19T02:45:02.869Z,80.91
2023-07-19T02:50:06.777Z,80.76
2023-07-19T02:55:09.933Z,80.83
2023-07-19T03:00:13.540Z,80.96
2023-07-19T03:05:17.440Z,80.64
2023-07-19T03:10:20.527Z,80.29
2023-07-19T03:15:23.480Z,80.39
2023-07-19T03:20:26.901Z,80.56
2023-07-19T03:25:30.420Z,80.68
2023-07-19T03:30:33.945Z,81.26
2023-07-19T03:35:36.905Z,82.02
2023-07-19T03:40:39.827Z,82.07
2023-07-19T03:45:43.840Z,82.03
2023-07-19T03:50:57.524Z,81.35
2023-07-19T03:56:01.562Z,81.17
2023-07-19T04:01:04.534Z,80.50
2023-07-19T04:06:08.216Z,80.26
2023-07-19T04:11:11.812Z,81.39
2023-07-19T04:16:14.886Z,81.63
2023-07-19T04:21:18.072Z,81.33
2023-07-19T04:26:21.160Z,81.35
2023-07-19T04:31:24.146Z,81.24
2023-07-19T04:36:27.014Z,81.25
2023-07-19T04:41:29.883Z,81.15
2023-07-19T04:46:32.844Z,81.03
2023-07-19T04:51:35.972Z,80.11
2023-07-19T04:56:38.910Z,81.01
2023-07-19T05:01:41.865Z,81.02
2023-07-19T05:06:45.366Z,80.82
2023-07-19T05:11:48.225Z,79.98
2023-07-19T05:16:51.596Z,80.84
2023-07-19T05:21:54.633Z,80.81
2023-07-19T05:26:58.229Z,80.91
2023-07-19T05:32:01.462Z,80.82
2023-07-19T05:37:05.522Z,80.50
2023-07-19T05:42:08.681Z,80.50
2023-07-19T05:47:11.682Z,79.83
2023-07-19T05:52:14.784Z,78.89
2023-07-19T05:57:17.776Z,79.17
2023-07-19T06:02:20.884Z,78.33
2023-07-19T06:07:23.836Z,76.51
2023-07-19T06:12:26.744Z,72.38
2023-07-19T06:17:29.757Z,73.89
2023-07-19T06:22:32.734Z,73.56
2023-07-19T06:27:35.734Z,73.45
2023-07-19T06:32:39.279Z,72.54
2023-07-19T06:37:42.280Z,72.86
2023-07-19T06:42:45.245Z,72.83
2023-07-19T06:47:48.262Z,72.87
2023-07-19T06:52:51.620Z,72.10
2023-07-19T06:57:54.645Z,72.25
2023-07-19T07:02:57.642Z,72.39
2023-07-19T07:08:00.694Z,72.72
2023-07-19T07:13:03.625Z,72.84
2023-07-19T07:18:06.511Z,72.71
2023-07-19T07:23:09.669Z,72.79
2023-07-19T07:28:12.984Z,72.75
2023-07-19T07:33:16.021Z,72.20
2023-07-19T07:38:19.288Z,71.38
2023-07-19T07:43:22.225Z,72.16
2023-07-19T07:48:25.371Z,71.19
2023-07-19T07:53:28.334Z,69.89
2023-07-19T07:58:31.388Z,69.30
2023-07-19T08:03:34.501Z,69.75
2023-07-19T08:08:37.623Z,70.38
2023-07-19T08:13:40.548Z,69.97
2023-07-19T08:18:53.472Z,69.82
2023-07-19T08:24:02.693Z,69.52
2023-07-19T08:29:05.711Z,68.88
2023-07-19T08:34:08.720Z,67.54
2023-07-19T08:39:11.698Z,67.81
2023-07-19T08:44:15.310Z,67.72
2023-07-19T08:49:19.986Z,68.28
2023-07-19T08:54:23.088Z,68.85
2023-07-19T08:59:26.373Z,67.54
2023-07-19T09:04:29.360Z,67.22
2023-07-19T09:09:33.461Z,68.03
2023-07-19T09:14:38.012Z,67.96
2023-07-19T09:19:44.555Z,67.79
2023-07-19T09:25:02.650Z,67.14
2023-07-19T09:30:16.234Z,66.35
2023-07-19T09:35:28.817Z,64.58
2023-07-19T09:40:32.849Z,65.86
2023-07-19T09:45:36.063Z,66.99
2023-07-19T09:50:43.170Z,67.09
2023-07-19T09:55:49.647Z,66.90
2023-07-19T10:00:52.634Z,67.14
2023-07-19T10:05:58.055Z,67.67
2023-07-19T10:11:02.300Z,65.18
2023-07-19T10:16:06.493Z,63.51
2023-07-19T10:21:11.475Z,63.94
2023-07-19T10:26:14.475Z,65.24
2023-07-19T10:31:28.804Z,64.85
2023-07-19T10:36:32.339Z,65.10
2023-07-19T10:41:35.926Z,65.40
2023-07-19T10:46:39.753Z,66.07
2023-07-19T10:51:59.477Z,66.62
2023-07-19T10:57:02.870Z,67.79
2023-07-19T11:02:06.877Z,67.58
2023-07-19T11:07:12.238Z,66.26
2023-07-19T11:12:15.824Z,64.42
2023-07-19T11:17:31.700Z,64.39
2023-07-19T11:22:35.037Z,62.99
2023-07-19T11:27:39.500Z,60.76
2023-07-19T11:32:42.602Z,60.99
2023-07-19T11:37:45.564Z,61.10
2023-07-19T11:42:53.624Z,62.18
2023-07-19T11:48:02.764Z,60.90
2023-07-19T11:53:07.038Z,61.01
2023-07-19T11:58:10.063Z,58.97
2023-07-19T12:03:15.570Z,54.99
2023-07-19T12:08:18.566Z,53.13
2023-07-19T12:13:23.655Z,49.90
2023-07-19T12:18:29.533Z,50.06
2023-07-19T12:23:34.261Z,48.31
2023-07-19T12:28:38.051Z,47.65
2023-07-19T12:33:41.797Z,48.08
2023-07-19T12:38:44.848Z,48.71
2023-07-19T12:43:48.145Z,49.44
2023-07-19T12:48:51.157Z,48.38
2023-07-19T12:53:54.361Z,47.04
2023-07-19T12:58:57.374Z,47.46
2023-07-19T13:04:00.710Z,48.33
2023-07-19T13:09:07.830Z,49.15
2023-07-19T13:14:10.960Z,50.89
2023-07-19T13:19:14.477Z,52.36
2023-07-19T13:24:17.403Z,53.47
2023-07-19T13:29:20.495Z,54.15
2023-07-19T13:34:23.611Z,54.67
2023-07-19T13:39:28.656Z,55.74
2023-07-19T13:44:32.476Z,56.85
2023-07-19T13:49:35.959Z,57.56
2023-07-19T13:54:40.064Z,58.35
2023-07-19T13:59:42.992Z,58.42
2023-07-19T14:04:46.033Z,59.89
2023-07-19T14:09:49.182Z,64.49
2023-07-19T14:14:52.372Z,66.64
2023-07-19T14:19:57.429Z,69.01
2023-07-19T14:25:00.850Z,69.71
2023-07-19T14:30:07.407Z,75.65
2023-07-19T14:35:11.148Z,78.89
2023-07-19T14:40:15.121Z,81.68
2023-07-19T14:45:27.626Z,82.43
2023-07-19T14:50:34.809Z,81.32
2023-07-19T14:55:37.866Z,81.50
2023-07-19T15:00:41.033Z,81.81
2023-07-19T15:05:46.283Z,81.17
2023-07-19T15:10:50.580Z,81.88
2023-07-19T15:15:56.113Z,83.16
2023-07-19T15:21:01.842Z,82.04
2023-07-19T15:26:12.120Z,82.14
2023-07-19T15:31:20.371Z,83.40
2023-07-19T15:36:24.434Z,84.13
2023-07-19T15:41:27.626Z,83.93
2023-07-19T15:46:30.749Z,83.55
2023-07-19T15:51:39.097Z,83.65
2023-07-19T15:56:42.112Z,83.69
2023-07-19T16:01:45.374Z,83.51
2023-07-19T16:06:48.306Z,83.17
2023-07-19T16:11:51.570Z,83.07
2023-07-19T16:16:54.505Z,83.04
2023-07-19T16:21:57.451Z,82.88
2023-07-19T16:27:00.443Z,82.42
2023-07-19T16:32:03.611Z,82.43
2023-07-19T16:37:07.519Z,82.29
2023-07-19T16:42:10.586Z,82.26
2023-07-19T16:47:13.570Z,81.65
2023-07-19T16:52:16.558Z,81.56
2023-07-19T16:57:19.589Z,80.34
2023-07-19T17:02:22.529Z,80.90
2023-07-19T17:07:25.546Z,81.89
2023-07-19T17:12:28.483Z,81.99
2023-07-19T17:17:38.924Z,81.77
2023-07-19T17:22:42.270Z,81.42
2023-07-19T17:27:46.358Z,81.35
2023-07-19T17:32:49.726Z,81.05
2023-07-19T17:37:55.032Z,80.81
2023-07-19T17:42:58.195Z,80.76
2023-07-19T17:48:01.296Z,81.19
2023-07-19T17:53:04.352Z,81.72
2023-07-19T17:58:07.318Z,81.71
2023-07-19T18:03:10.612Z,81.71
2023-07-19T18:08:23.176Z,81.41
2023-07-19T18:13:28.176Z,81.60
2023-07-19T18:18:31.224Z,80.86
2023-07-19T18:23:34.130Z,80.16
2023-07-19T18:28:37.438Z,80.48
2023-07-19T18:33:41.038Z,80.43
2023-07-19T18:38:44.027Z,80.00
2023-07-19T18:43:46.989Z,80.16
2023-07-19T18:48:49.988Z,80.28
2023-07-19T18:53:52.959Z,80.37
2023-07-19T18:58:56.047Z,80.38
2023-07-19T19:03:59.226Z,80.76
2023-07-19T19:09:08.074Z,80.97
2023-07-19T19:14:11.207Z,81.46
2023-07-19T19:19:14.169Z,80.89
2023-07-19T19:24:17.161Z,80.84
2023-07-19T19:29:20.363Z,81.07
2023-07-19T19:34:23.662Z,81.10
2023-07-19T19:39:30.130Z,81.10
2023-07-19T19:44:33.673Z,81.22
2023-07-19T19:49:37.063Z,81.19
2023-07-19T19:54:41.340Z,81.26
2023-07-19T19:59:45.966Z,81.32
2023-07-19T20:04:50.077Z,81.36
2023-07-19T20:10:01.498Z,81.40
2023-07-19T20:15:17.661Z,81.42
2023-07-19T20:20:24.022Z,81.53
2023-07-19T20:25:54.325Z,81.51
2023-07-19T20:30:55.409Z,81.46
2023-07-19T20:46:10.006Z,81.89
2023-07-19T20:51:13.088Z,82.11
2023-07-19T20:56:25.068Z,82.42
2023-07-19T21:01:28.602Z,82.44
2023-07-19T21:06:31.789Z,82.26
2023-07-19T21:11:34.858Z,82.30
2023-07-19T21:16:40.541Z,82.26
2023-07-19T21:21:44.580Z,82.36
2023-07-19T21:26:47.568Z,82.72
2023-07-19T21:31:50.643Z,82.71
2023-07-19T21:36:53.604Z,82.71
2023-07-19T21:41:56.623Z,82.72
2023-07-19T21:46:59.559Z,82.86
2023-07-19T21:52:02.630Z,82.86
2023-07-19T21:57:06.021Z,82.89
2023-07-19T22:02:09.208Z,82.84
2023-07-19T22:07:12.094Z,82.93
2023-07-19T22:12:15.032Z,82.96
2023-07-19T22:17:18.008Z,82.83
2023-07-19T22:22:20.931Z,82.90
2023-07-19T22:27:23.819Z,82.91
2023-07-19T22:32:27.127Z,82.94
2023-07-19T22:37:30.057Z,82.94
2023-07-19T22:42:32.956Z,82.82
2023-07-19T22:47:35.872Z,82.93
2023-07-19T22:52:42.241Z,82.89
2023-07-19T22:57:45.267Z,83.02
2023-07-19T23:02:48.357Z,83.01
2023-07-19T23:07:55.310Z,83.09
2023-07-19T23:12:58.257Z,83.24
2023-07-19T23:18:01.266Z,83.29
2023-07-19T23:23:04.218Z,83.34
2023-07-19T23:28:07.238Z,83.29
2023-07-19T23:33:10.178Z,83.08
2023-07-19T23:38:13.196Z,83.78
2023-07-19T23:43:18.598Z,83.71
2023-07-19T23:48:21.537Z,83.92
2023-07-19T23:53:24.516Z,83.74
2023-07-19T23:58:27.443Z,83.71
